Time;durP1;ratioP1;P1;durP2;ratioP2;P2;SDS_P1;SDS_P2;PMS_P1;PMS_P2;Temp;Humidity;BMP_temperature;BMP_pressure;BME280_temperature;BME280_humidity;BME280_pressure;Samples;Min_cycle;Max_cycle;Signal;HPM_P1;HPM_P2
2021/06/10 00:02:22;;;;;;;3.95;3.28;;;15.70;99.90;;;;;;5067446;28;20298;-81
2021/06/10 00:04:48;;;;;;;4.22;3.22;;;15.70;99.90;;;;;;5041765;28;20192;-81
2021/06/10 00:07:15;;;;;;;2.92;2.72;;;15.80;99.90;;;;;;5048658;28;20174;-81
2021/06/10 00:09:42;;;;;;;5.70;3.55;;;15.80;99.90;;;;;;5056843;28;20294;-80
2021/06/10 00:12:09;;;;;;;3.50;3.20;;;15.80;99.90;;;;;;5066697;28;20209;-81
2021/06/10 00:14:35;;;;;;;3.08;2.75;;;15.80;99.90;;;;;;5049035;28;20196;-81
2021/06/10 00:17:00;;;;;;;3.95;3.55;;;15.80;99.90;;;;;;5048697;28;20185;-80
2021/06/10 00:19:26;;;;;;;2.83;2.63;;;15.80;99.90;;;;;;5064784;28;20308;-81
2021/06/10 00:21:52;;;;;;;5.72;3.30;;;15.80;99.90;;;;;;5066995;28;20198;-81
2021/06/10 00:24:18;;;;;;;3.38;2.90;;;15.90;99.90;;;;;;5049038;28;20177;-81
2021/06/10 00:26:44;;;;;;;3.25;2.83;;;15.90;99.90;;;;;;5048754;28;20177;-81
2021/06/10 00:29:11;;;;;;;3.45;2.72;;;15.80;99.90;;;;;;5027758;22;20602;-70
2021/06/10 00:31:39;;;;;;;2.60;2.40;;;15.80;99.90;;;;;;4998002;28;20281;-71
2021/06/10 00:34:07;;;;;;;5.53;3.00;;;15.70;99.90;;;;;;4982926;28;20224;-71
2021/06/10 00:36:32;;;;;;;2.90;2.55;;;15.50;99.90;;;;;;4993600;28;20642;-71
2021/06/10 00:38:58;;;;;;;3.20;2.63;;;15.40;99.90;;;;;;4998578;28;20246;-70
2021/06/10 00:41:24;;;;;;;3.83;3.03;;;15.40;99.90;;;;;;4998266;28;20201;-70
2021/06/10 00:43:58;;;;;;;3.58;2.92;;;15.40;99.90;;;;;;4998578;28;20218;-71
2021/06/10 00:46:24;;;;;;;3.55;2.88;;;15.30;99.90;;;;;;4991345;28;20632;-71
2021/06/10 00:48:49;;;;;;;5.32;3.70;;;15.40;99.90;;;;;;5006523;28;20209;-71
2021/06/10 00:51:15;;;;;;;3.72;3.20;;;15.50;99.90;;;;;;5000291;28;20311;-71
2021/06/10 00:53:48;;;;;;;4.03;3.50;;;15.50;99.90;;;;;;4990477;28;20612;-71
2021/06/10 00:56:14;;;;;;;5.15;3.50;;;15.50;99.90;;;;;;5014342;28;20182;-71
2021/06/10 00:58:40;;;;;;;3.47;3.17;;;15.50;99.90;;;;;;4983015;28;20213;-71
2021/06/10 01:01:07;;;;;;;2.88;2.55;;;15.30;99.90;;;;;;4987250;28;20216;-72
2021/06/10 01:03:34;;;;;;;2.92;2.70;;;15.10;99.90;;;;;;5015083;28;20645;-71
2021/06/10 01:06:06;;;;;;;3.67;3.25;;;15.10;99.90;;;;;;5017883;28;20209;-71
2021/06/10 01:08:48;;;;;;;4.05;3.13;;;15.10;99.90;;;;;;4993573;28;20197;-71
2021/06/10 01:11:37;;;;;;;4.55;3.00;;;15.10;99.90;;;;;;5003973;28;20213;-71
2021/06/10 01:14:21;;;;;;;3.65;3.35;;;15.10;99.90;;;;;;4992931;28;20193;-71
2021/06/10 01:16:48;;;;;;;3.45;3.08;;;15.00;99.90;;;;;;4997366;28;20178;-72
2021/06/10 01:19:28;;;;;;;4.07;3.28;;;14.90;99.90;;;;;;5001711;28;21114;-72
2021/06/10 01:22:27;;;;;;;5.70;2.65;;;15.00;99.90;;;;;;4987326;28;20251;-71
2021/06/10 01:25:26;;;;;;;4.78;3.10;;;14.80;99.90;;;;;;5001033;28;20545;-72
2021/06/10 01:28:19;;;;;;;3.22;2.83;;;14.90;99.90;;;;;;4996255;28;20272;-72
2021/06/10 01:30:57;;;;;;;4.65;3.40;;;14.90;99.90;;;;;;4966972;28;20194;-71
2021/06/10 01:33:26;;;;;;;4.18;3.03;;;14.80;99.90;;;;;;4993925;28;20186;-71
2021/06/10 01:36:02;;;;;;;4.05;2.95;;;14.70;99.90;;;;;;5004917;28;20629;-72
2021/06/10 01:38:30;;;;;;;3.75;3.38;;;14.60;99.90;;;;;;4989215;28;20201;-72
2021/06/10 01:40:58;;;;;;;3.33;3.03;;;14.70;99.90;;;;;;4977515;28;20359;-72
2021/06/10 01:43:30;;;;;;;3.42;3.05;;;14.70;99.90;;;;;;4992836;28;20605;-71
2021/06/10 01:45:57;;;;;;;3.40;2.95;;;14.70;99.90;;;;;;4979299;28;20173;-71
2021/06/10 01:48:24;;;;;;;3.90;3.42;;;14.70;99.90;;;;;;5004850;28;20202;-72
2021/06/10 01:50:54;;;;;;;3.10;2.80;;;14.80;99.90;;;;;;4995094;28;20185;-71
2021/06/10 01:53:21;;;;;;;3.90;3.25;;;14.70;99.90;;;;;;4967189;28;20181;-72
2021/06/10 01:55:49;;;;;;;4.78;2.97;;;14.80;99.90;;;;;;4971751;28;20174;-73
2021/06/10 01:58:16;;;;;;;3.85;3.25;;;14.80;99.90;;;;;;4990584;28;20189;-72
2021/06/10 02:00:44;;;;;;;3.10;2.60;;;14.90;99.90;;;;;;5004008;28;20182;-73
2021/06/10 02:03:12;;;;;;;3.75;3.08;;;14.90;99.90;;;;;;5006354;28;20179;-72
2021/06/10 02:05:40;;;;;;;4.00;3.40;;;14.90;99.90;;;;;;5007001;28;20243;-73
2021/06/10 02:08:09;;;;;;;3.08;2.78;;;15.00;99.90;;;;;;5022524;28;20178;-71
2021/06/10 02:10:35;;;;;;;3.53;3.22;;;14.90;99.90;;;;;;5004312;28;20174;-71
2021/06/10 02:13:01;;;;;;;3.63;3.15;;;14.80;99.90;;;;;;5007014;28;20531;-73
2021/06/10 02:15:29;;;;;;;3.58;3.28;;;14.80;99.90;;;;;;4998417;28;20192;-71
2021/06/10 02:17:54;;;;;;;4.07;3.67;;;14.90;99.90;;;;;;4990695;28;20192;-73
2021/06/10 02:20:21;;;;;;;4.07;3.60;;;14.90;99.90;;;;;;4985017;28;20537;-71
2021/06/10 02:22:48;;;;;;;3.65;3.33;;;14.90;99.90;;;;;;4995054;28;20569;-71
2021/06/10 02:25:14;;;;;;;3.97;2.85;;;14.70;99.90;;;;;;5008045;28;20688;-71
2021/06/10 02:27:41;;;;;;;3.53;3.10;;;14.60;99.90;;;;;;4976293;28;20185;-71
2021/06/10 02:30:09;;;;;;;4.57;3.78;;;14.70;99.90;;;;;;4970807;28;20221;-72
2021/06/10 02:32:35;;;;;;;3.55;2.88;;;14.70;99.90;;;;;;4992165;28;20224;-73
2021/06/10 02:35:09;;;;;;;4.18;3.65;;;14.70;99.90;;;;;;4989647;28;20190;-72
2021/06/10 02:37:42;;;;;;;3.60;3.22;;;14.80;99.90;;;;;;4998879;28;20174;-72
2021/06/10 02:40:11;;;;;;;5.07;4.38;;;14.70;99.90;;;;;;5003816;28;20391;-71
2021/06/10 02:42:38;;;;;;;3.95;3.38;;;14.70;99.90;;;;;;4982497;28;20241;-72
2021/06/10 02:45:07;;;;;;;6.10;4.05;;;14.70;99.90;;;;;;4990215;28;20193;-72
2021/06/10 02:47:33;;;;;;;4.18;3.63;;;14.60;99.90;;;;;;5016381;28;20188;-72
2021/06/10 02:50:02;;;;;;;4.30;3.90;;;14.60;99.90;;;;;;4976327;28;20572;-72
2021/06/10 02:52:28;;;;;;;4.82;4.32;;;14.50;99.90;;;;;;5001842;28;20194;-71
2021/06/10 02:54:55;;;;;;;4.70;3.75;;;14.50;99.90;;;;;;4995259;28;20713;-72
2021/06/10 02:57:24;;;;;;;5.15;3.58;;;14.50;99.90;;;;;;4997776;28;20185;-72
2021/06/10 02:59:51;;;;;;;6.63;4.10;;;14.40;99.90;;;;;;4991603;28;20209;-70
2021/06/10 03:02:19;;;;;;;4.40;3.92;;;14.30;99.90;;;;;;4985757;28;20209;-71
2021/06/10 03:04:45;;;;;;;5.07;3.65;;;14.30;99.90;;;;;;4989542;28;20230;-71
2021/06/10 03:07:13;;;;;;;4.47;3.40;;;14.20;99.90;;;;;;4990072;28;20181;-71
2021/06/10 03:09:40;;;;;;;5.30;3.75;;;14.10;99.90;;;;;;4993931;28;20806;-71
2021/06/10 03:12:08;;;;;;;6.55;4.28;;;14.10;99.90;;;;;;4982073;28;20190;-71
2021/06/10 03:14:33;;;;;;;4.70;4.28;;;14.20;99.90;;;;;;4972097;28;20209;-71
2021/06/10 03:17:00;;;;;;;6.40;4.28;;;14.20;99.90;;;;;;4987566;28;20652;-71
2021/06/10 03:29:40;;;;;;;5.35;4.45;;;14.30;99.90;;;;;;4947358;28;20219;-73
2021/06/10 03:32:06;;;;;;;4.65;4.05;;;14.30;99.90;;;;;;4994333;28;20198;-73
2021/06/10 03:34:33;;;;;;;4.72;3.92;;;14.40;99.90;;;;;;4987240;28;20225;-72
2021/06/10 03:37:01;;;;;;;5.78;4.35;;;14.50;99.90;;;;;;4995619;28;20522;-73
2021/06/10 03:39:28;;;;;;;5.00;4.13;;;14.50;99.90;;;;;;4974915;28;20236;-73
2021/06/10 03:41:55;;;;;;;6.93;4.35;;;14.50;99.90;;;;;;4993080;28;20214;-73
2021/06/10 03:44:23;;;;;;;5.05;3.78;;;14.60;99.90;;;;;;4981324;28;20185;-72
2021/06/10 03:46:49;;;;;;;4.90;4.40;;;14.60;99.90;;;;;;4985563;28;20591;-73
2021/06/10 03:49:15;;;;;;;7.07;5.28;;;14.60;99.90;;;;;;4981675;28;20210;-74
2021/06/10 03:51:41;;;;;;;4.78;3.80;;;14.70;99.90;;;;;;4995445;28;20190;-74
2021/06/10 03:54:07;;;;;;;4.95;4.05;;;14.70;99.90;;;;;;5004548;28;20190;-74
2021/06/10 03:56:34;;;;;;;4.60;4.00;;;14.70;99.90;;;;;;4991341;28;20596;-73
2021/06/10 03:59:00;;;;;;;4.50;4.07;;;14.80;99.90;;;;;;5004074;28;20202;-74
2021/06/10 04:01:25;;;;;;;4.50;3.38;;;14.70;99.90;;;;;;4985973;28;20202;-73
2021/06/10 04:03:51;;;;;;;3.47;3.13;;;14.70;99.90;;;;;;5009113;28;20182;-73
2021/06/10 04:06:18;;;;;;;5.15;3.55;;;14.70;99.90;;;;;;5005859;28;20191;-74
2021/06/10 04:08:44;;;;;;;3.80;3.40;;;14.70;99.90;;;;;;4991701;28;20229;-74
2021/06/10 04:11:10;;;;;;;5.07;3.75;;;14.80;99.90;;;;;;4994762;28;20174;-73
2021/06/10 04:13:36;;;;;;;5.35;3.75;;;14.90;99.90;;;;;;4979700;28;20272;-73
2021/06/10 04:16:02;;;;;;;7.45;4.28;;;15.00;99.90;;;;;;4995374;28;20273;-73
2021/06/10 04:18:28;;;;;;;6.15;4.57;;;15.10;99.90;;;;;;4995235;28;20210;-73
2021/06/10 04:20:53;;;;;;;4.32;3.92;;;15.20;99.90;;;;;;4972403;28;20190;-73
2021/06/10 04:23:19;;;;;;;6.28;4.03;;;15.50;99.90;;;;;;4998384;28;20186;-73
2021/06/10 04:25:45;;;;;;;6.20;3.55;;;16.30;99.90;;;;;;5007513;28;20178;-73
2021/06/10 04:28:11;;;;;;;6.65;3.90;;;17.00;99.90;;;;;;5025333;28;20747;-73
2021/06/10 04:30:37;;;;;;;6.10;3.70;;;17.70;99.90;;;;;;5017570;28;20320;-73
2021/06/10 04:33:03;;;;;;;3.60;3.17;;;18.40;99.90;;;;;;4978735;28;20261;-73
2021/06/10 04:35:29;;;;;;;4.63;2.97;;;19.00;99.90;;;;;;5006678;28;20557;-73
2021/06/10 04:37:54;;;;;;;4.47;3.10;;;19.50;99.90;;;;;;4988647;28;20197;-73
2021/06/10 04:40:20;;;;;;;3.55;3.22;;;19.70;99.90;;;;;;4961716;28;20214;-74
2021/06/10 04:42:46;;;;;;;3.50;2.95;;;20.20;99.90;;;;;;4997403;28;20220;-73
2021/06/10 04:45:12;;;;;;;3.80;3.33;;;20.70;99.90;;;;;;5015484;28;20178;-74
2021/06/10 04:47:38;;;;;;;3.40;3.10;;;21.10;99.90;;;;;;5012152;28;20228;-73
2021/06/10 04:50:05;;;;;;;3.90;3.50;;;21.40;99.90;;;;;;5000621;28;20233;-73
2021/06/10 04:52:31;;;;;;;3.55;3.25;;;21.80;99.90;;;;;;4990144;28;20190;-73
2021/06/10 04:54:57;;;;;;;5.78;3.05;;;21.90;99.90;;;;;;4972858;28;20183;-74
2021/06/10 04:57:22;;;;;;;5.45;3.50;;;22.00;99.90;;;;;;4984793;28;20599;-74
2021/06/10 04:59:48;;;;;;;3.58;3.28;;;21.80;99.90;;;;;;4994790;28;20683;-74
2021/06/10 05:02:14;;;;;;;3.65;3.30;;;21.70;99.90;;;;;;4982355;28;20217;-73
2021/06/10 05:04:39;;;;;;;3.50;3.20;;;21.60;99.90;;;;;;4988183;28;20208;-73
2021/06/10 05:07:05;;;;;;;3.72;3.40;;;21.90;99.90;;;;;;4976959;28;20173;-73
2021/06/10 05:09:31;;;;;;;3.50;3.20;;;22.30;99.90;;;;;;4977189;28;20570;-73
2021/06/10 05:11:56;;;;;;;4.30;3.90;;;22.80;99.90;;;;;;4995292;28;20190;-74
2021/06/10 05:14:22;;;;;;;3.28;2.97;;;22.80;99.90;;;;;;4979175;28;20186;-73
2021/06/10 05:16:49;;;;;;;3.97;3.60;;;22.80;99.90;;;;;;4980200;28;20185;-73
2021/06/10 05:19:15;;;;;;;3.63;3.33;;;22.60;99.90;;;;;;5008182;28;20255;-73
2021/06/10 05:21:41;;;;;;;3.80;3.35;;;22.70;99.90;;;;;;5006811;28;20270;-73
2021/06/10 05:24:08;;;;;;;3.88;3.55;;;23.20;99.90;;;;;;4982427;28;20178;-73
2021/06/10 05:26:35;;;;;;;4.30;3.70;;;23.70;99.90;;;;;;4954640;28;20268;-73
2021/06/10 05:29:03;;;;;;;4.70;3.90;;;24.20;99.90;;;;;;4987569;28;20218;-73
2021/06/10 05:31:28;;;;;;;4.03;3.70;;;24.50;99.90;;;;;;5000699;28;20639;-73
2021/06/10 05:33:54;;;;;;;4.40;4.00;;;24.70;99.90;;;;;;4976987;28;20209;-73
2021/06/10 05:36:19;;;;;;;4.93;3.70;;;24.80;99.90;;;;;;4982794;28;20251;-73
2021/06/10 05:38:45;;;;;;;4.78;4.35;;;24.90;99.90;;;;;;5012828;28;20205;-74
2021/06/10 05:41:11;;;;;;;4.80;4.40;;;24.70;99.90;;;;;;4999106;28;20213;-73
2021/06/10 05:43:36;;;;;;;5.90;5.07;;;24.70;99.90;;;;;;5005297;28;20665;-73
2021/06/10 05:46:03;;;;;;;6.07;5.07;;;24.70;99.90;;;;;;4973828;28;20229;-73
2021/06/10 05:48:28;;;;;;;5.60;5.05;;;24.50;99.90;;;;;;4979467;28;20662;-72
2021/06/10 05:50:54;;;;;;;5.63;5.07;;;24.20;99.90;;;;;;4984941;28;20185;-72
2021/06/10 05:53:19;;;;;;;4.55;4.15;;;24.10;99.90;;;;;;4973650;28;20225;-74
2021/06/10 05:55:46;;;;;;;5.43;4.90;;;24.00;99.90;;;;;;4995735;28;20261;-73
2021/06/10 05:58:13;;;;;;;6.53;5.80;;;24.00;99.90;;;;;;4986387;28;20276;-73
2021/06/10 06:00:39;;;;;;;6.18;5.25;;;24.10;99.90;;;;;;5023619;28;20905;-73
2021/06/10 06:03:06;;;;;;;6.28;5.65;;;24.40;99.90;;;;;;5019529;28;20688;-73
2021/06/10 06:05:33;;;;;;;5.93;5.32;;;24.70;99.90;;;;;;4997837;28;20186;-73
2021/06/10 06:07:59;;;;;;;9.45;7.40;;;24.90;99.90;;;;;;4987135;28;20178;-73
2021/06/10 06:10:27;;;;;;;19.80;14.73;;;24.80;99.90;;;;;;4984442;28;20206;-72
2021/06/10 06:12:55;;;;;;;12.63;8.55;;;24.80;99.90;;;;;;4977030;28;20212;-73
2021/06/10 06:15:21;;;;;;;9.68;7.43;;;25.10;99.90;;;;;;4986804;28;20217;-73
2021/06/10 06:17:47;;;;;;;10.00;7.28;;;25.10;99.90;;;;;;4995497;28;20225;-72
2021/06/10 06:20:14;;;;;;;7.05;6.35;;;25.00;99.90;;;;;;4998699;28;20198;-73
2021/06/10 06:22:42;;;;;;;7.28;6.18;;;24.90;99.90;;;;;;4982934;28;20245;-73
2021/06/10 06:25:12;;;;;;;7.22;6.53;;;24.70;99.90;;;;;;5009854;28;20187;-72
2021/06/10 06:27:39;;;;;;;7.38;6.40;;;24.50;99.90;;;;;;4982734;28;20276;-73
2021/06/10 06:30:06;;;;;;;7.95;6.70;;;24.70;99.90;;;;;;5004719;28;20225;-72
2021/06/10 06:32:33;;;;;;;6.65;5.90;;;24.90;99.90;;;;;;5010368;28;20194;-73
2021/06/10 06:34:58;;;;;;;8.55;7.30;;;25.00;99.90;;;;;;4988173;28;20552;-73
2021/06/10 06:37:24;;;;;;;8.38;6.70;;;25.10;99.90;;;;;;4995638;28;20196;-72
2021/06/10 06:39:49;;;;;;;8.20;6.75;;;24.60;99.90;;;;;;4988561;28;20201;-72
2021/06/10 06:42:15;;;;;;;8.50;7.60;;;24.50;99.90;;;;;;5019173;28;20730;-74
2021/06/10 06:44:41;;;;;;;9.52;7.03;;;24.20;99.90;;;;;;4999968;28;20237;-73
2021/06/10 06:47:06;;;;;;;8.90;7.03;;;24.10;99.90;;;;;;4988742;28;20182;-73
2021/06/10 06:49:32;;;;;;;8.57;7.68;;;24.10;99.90;;;;;;4999674;28;20579;-72
2021/06/10 06:51:58;;;;;;;9.63;7.15;;;24.10;99.90;;;;;;4981407;28;20186;-74
2021/06/10 06:54:23;;;;;;;7.85;6.63;;;24.20;99.90;;;;;;4998620;28;20186;-72
2021/06/10 06:56:49;;;;;;;8.68;7.47;;;24.10;99.90;;;;;;4981974;28;20186;-74
2021/06/10 06:59:15;;;;;;;7.80;6.85;;;24.30;99.90;;;;;;4981474;28;20616;-72
2021/06/10 07:01:41;;;;;;;8.43;7.50;;;24.30;99.90;;;;;;4964250;28;20220;-72
2021/06/10 07:04:06;;;;;;;8.02;7.18;;;24.30;99.90;;;;;;4993422;28;20675;-73
2021/06/10 07:06:32;;;;;;;8.43;7.20;;;24.40;99.90;;;;;;4980995;28;20269;-71
2021/06/10 07:08:58;;;;;;;8.70;7.78;;;24.50;99.90;;;;;;4967317;28;20263;-73
2021/06/10 07:11:23;;;;;;;7.82;6.90;;;24.50;99.90;;;;;;4998231;28;20193;-73
2021/06/10 07:13:49;;;;;;;9.10;7.60;;;24.50;99.90;;;;;;5004644;28;20706;-73
2021/06/10 07:16:15;;;;;;;8.27;7.13;;;24.50;99.90;;;;;;4983871;28;20185;-73
2021/06/10 07:18:40;;;;;;;8.13;6.80;;;24.50;99.90;;;;;;4985223;28;20812;-72
2021/06/10 07:21:06;;;;;;;10.93;7.90;;;24.30;99.90;;;;;;5002249;28;22076;-74
2021/06/10 07:23:31;;;;;;;8.43;7.40;;;24.10;99.90;;;;;;4987049;28;20186;-73
2021/06/10 07:25:57;;;;;;;8.13;7.13;;;23.90;99.90;;;;;;5005389;28;20617;-72
2021/06/10 07:28:23;;;;;;;8.13;7.32;;;24.00;99.90;;;;;;5025775;28;20214;-73
2021/06/10 07:30:49;;;;;;;8.23;7.18;;;24.20;99.90;;;;;;4998615;28;20232;-72
2021/06/10 07:33:16;;;;;;;9.98;7.90;;;24.40;99.90;;;;;;5021804;28;20556;-72
2021/06/10 07:35:42;;;;;;;11.80;8.57;;;24.50;99.90;;;;;;5010059;28;20209;-73
2021/06/10 07:38:10;;;;;;;8.48;7.20;;;24.40;99.90;;;;;;4990135;28;21087;-72
2021/06/10 07:40:37;;;;;;;11.50;8.88;;;24.40;99.90;;;;;;4976736;28;20845;-71
2021/06/10 07:43:03;;;;;;;9.05;8.05;;;24.50;99.90;;;;;;5011731;28;20197;-72
2021/06/10 07:45:30;;;;;;;10.40;8.55;;;24.70;99.90;;;;;;4977710;28;20188;-72
2021/06/10 07:47:56;;;;;;;10.57;8.65;;;24.80;99.90;;;;;;5006902;28;20206;-71
2021/06/10 07:50:23;;;;;;;9.70;8.38;;;25.00;99.90;;;;;;4963020;28;20209;-73
2021/06/10 07:52:50;;;;;;;13.80;9.20;;;25.20;99.90;;;;;;4971326;28;20190;-71
2021/06/10 07:55:16;;;;;;;11.55;9.23;;;25.20;99.90;;;;;;4976914;28;20688;-72
2021/06/10 07:57:41;;;;;;;10.05;8.35;;;25.10;99.90;;;;;;5012226;28;20178;-72
2021/06/10 08:00:08;;;;;;;9.55;7.95;;;25.20;99.90;;;;;;5017285;28;20631;-73
2021/06/10 08:02:34;;;;;;;9.52;7.85;;;25.30;99.90;;;;;;4997014;28;20259;-72
2021/06/10 08:05:04;;;;;;;10.57;7.72;;;25.50;99.90;;;;;;5009367;28;20846;-73
2021/06/10 08:07:29;;;;;;;10.15;7.70;;;25.50;99.90;;;;;;4968212;28;20188;-73
2021/06/10 08:09:56;;;;;;;10.30;8.73;;;25.50;99.90;;;;;;5000568;28;20198;-72
2021/06/10 08:12:22;;;;;;;9.00;7.82;;;25.60;99.90;;;;;;5000258;28;20186;-72
2021/06/10 08:14:49;;;;;;;9.50;7.80;;;25.70;99.90;;;;;;4984410;28;20212;-73
2021/06/10 08:17:15;;;;;;;10.68;6.95;;;25.50;99.90;;;;;;4984293;28;20497;-73
2021/06/10 08:19:40;;;;;;;9.02;7.75;;;25.70;99.90;;;;;;4997234;28;20197;-73
2021/06/10 08:22:06;;;;;;;9.07;7.88;;;25.80;99.90;;;;;;5002710;28;20888;-72
2021/06/10 08:24:32;;;;;;;9.15;7.35;;;26.00;99.90;;;;;;4974818;28;20186;-73
2021/06/10 08:26:57;;;;;;;7.90;7.10;;;26.00;99.90;;;;;;5002865;28;20212;-73
2021/06/10 08:29:27;;;;;;;8.50;7.13;;;26.00;99.90;;;;;;4998320;28;20218;-73
2021/06/10 08:31:54;;;;;;;7.68;6.53;;;26.10;99.90;;;;;;4984908;28;20185;-73
2021/06/10 08:34:20;;;;;;;8.55;6.95;;;26.10;99.90;;;;;;4994779;28;20186;-73
2021/06/10 08:36:48;;;;;;;8.07;6.97;;;25.90;99.90;;;;;;4980861;28;20254;-73
2021/06/10 08:39:13;;;;;;;7.45;6.53;;;25.90;99.90;;;;;;5001748;28;20561;-73
2021/06/10 08:41:40;;;;;;;7.93;6.28;;;25.90;99.90;;;;;;5001716;28;20206;-73
2021/06/10 08:44:06;;;;;;;7.63;6.40;;;26.00;99.90;;;;;;5002611;28;20186;-73
2021/06/10 08:46:35;;;;;;;7.90;6.60;;;26.30;99.90;;;;;;4976040;28;20194;-73
2021/06/10 08:49:01;;;;;;;8.40;6.53;;;26.60;99.90;;;;;;4986139;28;20208;-73
2021/06/10 08:51:26;;;;;;;8.90;6.88;;;26.50;99.90;;;;;;4987359;28;20189;-72
2021/06/10 08:53:56;;;;;;;6.63;5.35;;;26.60;99.90;;;;;;5000860;28;20283;-73
2021/06/10 08:56:24;;;;;;;5.93;5.35;;;26.80;99.90;;;;;;4996602;28;20236;-73
2021/06/10 08:58:50;;;;;;;8.05;6.22;;;26.80;99.90;;;;;;5000469;28;20201;-73
2021/06/10 09:01:16;;;;;;;7.03;6.00;;;26.80;99.90;;;;;;5056084;22;20229;-76
2021/06/10 09:03:42;;;;;;;7.22;6.50;;;26.80;99.90;;;;;;4962519;28;20191;-75
2021/06/10 09:06:16;;;;;;;9.15;6.50;;;27.20;99.90;;;;;;4999742;28;20182;-76
2021/06/10 09:08:47;;;;;;;7.80;7.00;;;27.30;99.90;;;;;;4962735;28;20187;-76
2021/06/10 09:11:15;;;;;;;9.15;6.20;;;27.40;99.90;;;;;;5011144;28;20197;-75
2021/06/10 09:13:42;;;;;;;7.53;5.97;;;27.20;99.90;;;;;;5005565;28;20698;-75
2021/06/10 09:16:27;;;;;;;6.70;5.97;;;26.90;99.90;;;;;;4972801;28;20189;-76
2021/06/10 09:19:01;;;;;;;5.78;5.22;;;26.90;99.90;;;;;;5002493;28;20231;-76
2021/06/10 09:21:44;;;;;;;6.40;4.80;;;27.10;99.90;;;;;;5004967;28;20226;-76
2021/06/10 09:24:24;;;;;;;6.60;5.75;;;27.40;99.90;;;;;;5023822;28;20429;-76
2021/06/10 09:27:01;;;;;;;7.28;6.35;;;27.80;99.90;;;;;;5002721;28;20489;-81
2021/06/10 09:29:38;;;;;;;7.05;5.50;;;27.70;99.90;;;;;;4991282;28;20737;-82
2021/06/10 09:32:16;;;;;;;5.72;5.13;;;27.80;99.90;;;;;;4991013;28;20200;-81
2021/06/10 09:34:56;;;;;;;5.57;4.85;;;28.00;99.90;;;;;;5026102;28;20180;-81
2021/06/10 09:37:34;;;;;;;5.80;5.15;;;28.10;99.90;;;;;;5009700;28;20196;-84
2021/06/10 09:40:09;;;;;;;5.95;5.35;;;28.00;99.90;;;;;;5010787;28;20635;-82
2021/06/10 09:42:40;;;;;;;5.72;5.13;;;28.00;99.90;;;;;;5003256;28;20215;-82
2021/06/10 09:45:09;;;;;;;6.88;6.18;;;28.20;99.90;;;;;;4973039;28;20350;-81
2021/06/10 09:47:40;;;;;;;7.03;5.90;;;28.20;99.90;;;;;;4995818;28;20249;-82
2021/06/10 09:50:28;;;;;;;6.07;5.47;;;27.80;99.90;;;;;;5025061;28;20561;-75
2021/06/10 09:53:05;;;;;;;6.45;5.57;;;27.60;99.90;;;;;;5008148;28;20181;-78
2021/06/10 09:55:32;;;;;;;6.40;5.70;;;27.50;99.90;;;;;;5023788;28;20206;-77
2021/06/10 09:58:13;;;;;;;6.55;5.80;;;27.50;99.90;;;;;;5007359;28;20189;-78
2021/06/10 10:00:51;;;;;;;6.20;5.55;;;27.80;99.90;;;;;;5014868;28;20234;-78
2021/06/10 10:03:23;;;;;;;10.48;6.47;;;27.80;99.90;;;;;;5015898;28;20212;-77
2021/06/10 10:05:49;;;;;;;12.70;8.23;;;28.10;99.90;;;;;;5014324;28;20214;-78
2021/06/10 10:08:15;;;;;;;6.25;5.28;;;28.30;99.90;;;;;;5012064;28;20205;-78
2021/06/10 10:10:42;;;;;;;5.63;5.00;;;28.40;99.90;;;;;;5012696;28;20284;-78
2021/06/10 10:13:10;;;;;;;5.50;5.00;;;28.40;99.90;;;;;;5017809;28;20185;-77
2021/06/10 10:15:36;;;;;;;5.65;5.07;;;28.20;99.90;;;;;;5016285;28;20200;-77
2021/06/10 10:18:02;;;;;;;8.60;5.80;;;28.20;99.90;;;;;;5016980;28;20181;-78
2021/06/10 10:20:28;;;;;;;5.45;4.95;;;28.10;99.90;;;;;;5015608;28;20209;-78
2021/06/10 10:22:54;;;;;;;6.22;4.63;;;28.20;99.90;;;;;;5007686;28;20209;-77
2021/06/10 10:25:20;;;;;;;5.28;4.78;;;28.30;99.90;;;;;;5025987;28;20796;-78
2021/06/10 10:27:45;;;;;;;6.18;5.25;;;28.50;99.90;;;;;;5019245;28;20718;-78
2021/06/10 10:30:12;;;;;;;5.43;4.93;;;28.50;99.90;;;;;;5009053;28;20268;-77
2021/06/10 10:32:41;;;;;;;5.55;4.93;;;28.60;99.90;;;;;;5009687;28;20192;-78
2021/06/10 10:35:22;;;;;;;5.22;4.75;;;28.90;99.90;;;;;;5022799;28;20542;-78
2021/06/10 10:37:49;;;;;;;6.15;5.55;;;28.60;99.90;;;;;;5022852;28;20244;-77
2021/06/10 10:40:29;;;;;;;6.75;6.10;;;28.30;99.90;;;;;;5028707;28;20213;-77
2021/06/10 10:43:15;;;;;;;6.03;5.30;;;28.10;99.90;;;;;;5012674;28;20215;-76
2021/06/10 10:45:45;;;;;;;6.57;5.97;;;28.10;99.90;;;;;;5015280;28;20225;-78
2021/06/10 10:48:14;;;;;;;7.53;6.72;;;28.30;99.90;;;;;;5025269;28;20180;-78
2021/06/10 10:50:45;;;;;;;7.63;6.15;;;28.20;99.90;;;;;;5018676;28;20268;-77
2021/06/10 10:53:21;;;;;;;6.65;5.32;;;28.10;99.90;;;;;;5021540;28;20185;-78
2021/06/10 10:55:59;;;;;;;8.40;7.22;;;28.40;99.90;;;;;;5022811;28;20185;-78
2021/06/10 10:58:24;;;;;;;7.68;6.90;;;28.50;99.90;;;;;;5023266;28;20185;-77
2021/06/10 11:00:58;;;;;;;7.43;6.50;;;28.40;99.90;;;;;;5016200;28;20217;-78
2021/06/10 11:03:45;;;;;;;7.35;6.65;;;28.50;99.90;;;;;;5040380;28;20264;-77
2021/06/10 11:06:25;;;;;;;9.23;7.18;;;28.50;99.90;;;;;;4988305;28;20201;-77
2021/06/10 11:09:12;;;;;;;8.35;7.55;;;28.80;99.90;;;;;;5005636;28;20685;-76
2021/06/10 11:12:01;;;;;;;6.88;6.18;;;28.60;99.90;;;;;;5024081;28;20185;-78
2021/06/10 11:14:52;;;;;;;8.55;6.90;;;28.20;99.90;;;;;;4992333;28;20554;-76
2021/06/10 11:17:25;;;;;;;6.63;5.72;;;27.80;99.90;;;;;;5019915;28;20188;-78
2021/06/10 11:20:00;;;;;;;7.00;6.30;;;28.20;99.90;;;;;;5018227;28;20201;-77
2021/06/10 11:22:51;;;;;;;6.65;6.05;;;28.50;99.90;;;;;;5038676;28;20212;-77
2021/06/10 11:25:26;;;;;;;7.38;6.65;;;28.70;99.90;;;;;;5012313;28;20249;-77
2021/06/10 11:28:05;;;;;;;7.22;6.53;;;28.80;99.90;;;;;;4981880;28;20514;-77
2021/06/10 11:30:31;;;;;;;7.85;7.03;;;28.80;99.90;;;;;;5029242;28;20208;-78
2021/06/10 11:33:03;;;;;;;6.00;5.40;;;28.50;99.90;;;;;;5020013;28;20185;-76
2021/06/10 11:35:39;;;;;;;7.38;6.68;;;28.40;99.90;;;;;;4998503;28;20195;-78
2021/06/10 11:38:09;;;;;;;9.40;7.95;;;28.70;99.90;;;;;;5018938;28;20325;-77
2021/06/10 11:40:35;;;;;;;8.25;7.38;;;28.60;99.90;;;;;;5016997;28;20287;-78
2021/06/10 11:43:08;;;;;;;8.40;7.50;;;28.50;99.90;;;;;;5025527;28;20296;-77
2021/06/10 11:45:34;;;;;;;7.30;6.60;;;29.00;99.90;;;;;;5016167;28;20189;-77
2021/06/10 11:48:00;;;;;;;6.30;5.70;;;29.50;99.90;;;;;;5014696;28;20173;-77
2021/06/10 11:50:38;;;;;;;7.53;6.38;;;29.70;99.90;;;;;;5025987;28;20236;-77
2021/06/10 11:53:07;;;;;;;6.40;5.80;;;29.90;99.90;;;;;;5025796;28;20192;-77
2021/06/10 11:55:35;;;;;;;6.18;5.57;;;30.00;99.80;;;;;;5024845;28;20655;-78
2021/06/10 11:58:04;;;;;;;7.05;6.15;;;30.20;99.90;;;;;;5021569;28;20201;-78
2021/06/10 12:00:40;;;;;;;6.60;6.00;;;30.20;99.90;;;;;;5008458;28;20228;-78
2021/06/10 12:03:09;;;;;;;6.60;6.00;;;30.20;99.90;;;;;;5009320;28;20204;-78
2021/06/10 12:05:47;;;;;;;7.55;6.85;;;30.30;99.90;;;;;;4999573;28;20185;-78
2021/06/10 12:08:15;;;;;;;7.20;6.50;;;30.50;98.40;;;;;;5029179;28;20188;-77
2021/06/10 12:10:50;;;;;;;6.63;6.03;;;30.10;97.50;;;;;;5027382;28;20204;-78
2021/06/10 12:13:27;;;;;;;6.65;6.05;;;30.00;97.10;;;;;;5024195;28;20251;-78
2021/06/10 12:15:53;;;;;;;6.30;5.70;;;29.90;96.80;;;;;;5008601;28;20443;-78
2021/06/10 12:18:20;;;;;;;6.47;5.75;;;30.20;97.10;;;;;;5002294;28;20657;-78
2021/06/10 12:20:48;;;;;;;8.38;6.85;;;29.90;98.70;;;;;;4995745;28;20726;-77
2021/06/10 12:23:22;;;;;;;7.60;6.82;;;29.90;98.90;;;;;;4983061;28;20220;-78
2021/06/10 12:25:55;;;;;;;7.15;6.45;;;29.80;99.90;;;;;;5008619;28;20268;-78
2021/06/10 12:28:46;;;;;;;6.25;5.65;;;29.70;99.10;;;;;;5016922;28;20182;-78
2021/06/10 12:31:23;;;;;;;7.13;6.45;;;29.70;99.10;;;;;;5020311;28;20951;-77
2021/06/10 12:33:50;;;;;;;6.85;6.15;;;29.60;98.90;;;;;;4994093;28;20178;-78
2021/06/10 12:36:31;;;;;;;7.75;6.93;;;29.40;99.20;;;;;;5018045;28;20182;-77
2021/06/10 12:39:03;;;;;;;7.75;7.05;;;29.10;98.70;;;;;;5012531;28;20669;-78
2021/06/10 12:41:33;;;;;;;6.78;6.18;;;28.80;99.30;;;;;;5018939;28;20694;-78
2021/06/10 12:44:13;;;;;;;6.78;6.22;;;28.90;99.90;;;;;;5024153;28;20177;-77
2021/06/10 12:46:56;;;;;;;6.95;6.25;;;28.80;99.90;;;;;;5010967;28;20188;-77
2021/06/10 12:49:47;;;;;;;6.90;6.20;;;28.80;99.90;;;;;;4971787;28;20181;-78
2021/06/10 12:52:13;;;;;;;6.85;6.22;;;28.80;99.90;;;;;;5001355;28;20238;-80
2021/06/10 12:54:40;;;;;;;7.68;6.88;;;28.80;99.90;;;;;;5007641;28;20189;-77
2021/06/10 12:57:17;;;;;;;7.13;6.50;;;28.70;99.90;;;;;;5025050;28;20203;-78
2021/06/10 12:59:52;;;;;;;8.18;7.38;;;28.50;99.90;;;;;;4995669;28;20704;-80
2021/06/10 13:02:20;;;;;;;6.88;6.18;;;28.20;99.90;;;;;;5005449;28;20284;-79
2021/06/10 13:04:47;;;;;;;8.15;7.30;;;28.10;99.90;;;;;;5844087;23;20220;-77
2021/06/10 13:07:31;;;;;;;6.72;6.13;;;28.20;99.90;;;;;;4957533;28;20249;-77